Search for airport 
image banner adimage banner adimage banner ad
image banner ad

CA60 - Deer Creek Ranch

Located in Vina, United States

ICAO - CA60, IATA -

Data provided by Airmate  

General information

Coordinates: N39°56'60" W121°59'49"
Elevation is 280 feet MSL.
Magnetic variation is 17° East
View others Airports in California

Operational data

Special qualification required
Current time UTC:
Current local time:
Weather at : KCIC - Chico Muni ( 21 km )
METAR: KCIC 221315Z AUTO 14009KT 10SM CLR 17/11 A2987 RMK AO1
View NOTAMs / SUP AIP / TFR affecting this airport [VIEW]
Communications frequencies: [VIEW]

Runways:

RWY identifierQFULength (ft)Width (ft)SurfaceLDA (ft)
163000400ASPH
343000400ASPH

Airport contact information

Address: Vina United States

Satellite view of CA60